This is the latest recevied weather packets stored in our database for station/object KI4NG. If no packets are shown the sender has not sent any weather packets the latest 10 day(s).
| Time | Temp. | Humidity | Pressure | Rain* | Wind** | Luminosity | Snow |
|---|---|---|---|---|---|---|---|
| 1778097628 | 13.89° C | 99% | 1013.6 hPa | 0 mm | - | 94 W/m² | - |
| 1778097324 | 13.89° C | 99% | 1013.5 hPa | 0 mm | - | 84 W/m² | - |
| 1778097021 | 13.89° C | 99% | 1013.4 hPa | 0 mm | - | 85 W/m² | - |
| 1778096719 | 14.44° C | 99% | 1013.8 hPa | 0 mm | - | 88 W/m² | - |
| 1778096415 | 14.44° C | 99% | 1013.9 hPa | 0 mm | - | 83 W/m² | - |
| 1778096112 | 15° C | 99% | 1013.7 hPa | 0 mm | - | 61 W/m² | - |
| 1778095809 | 15° C | 99% | 1013.3 hPa | 0 mm | - | 90 W/m² | - |
| 1778095506 | 15.56° C | 99% | 1013.3 hPa | 0 mm | - | 46 W/m² | - |
| 1778095202 | 15.56° C | 99% | 1013.3 hPa | 0 mm | - | 53 W/m² | - |
| 1778094899 | 15.56° C | 99% | 1013.3 hPa | 0 mm | - | 113 W/m² | - |
| 1778094595 | 16.11° C | 99% | 1013.2 hPa | 0 mm | - | 150 W/m² | - |
| 1778094292 | 16.11° C | 99% | 1012.9 hPa | 0 mm | - | 184 W/m² | - |
| 1778093988 | 16.67° C | 98% | 1013.1 hPa | 0 mm | - | 151 W/m² | - |
| 1778093686 | 16.67° C | 98% | 1012.8 hPa | 0 mm | - | 215 W/m² | - |
| 1778093383 | 17.22° C | 97% | 1012.9 hPa | 0 mm | - | 111 W/m² | - |
| 1778093079 | 17.78° C | 97% | 1012.9 hPa | 0 mm | - | 134 W/m² | - |
| 1778092777 | 18.33° C | 97% | 1013 hPa | 0 mm | - | 111 W/m² | - |
| 1778092472 | 18.33° C | 96% | 1012.8 hPa | 0 mm | - | 118 W/m² | - |
| 1778092169 | 18.89° C | 95% | 1012.9 hPa | 0 mm | - | 111 W/m² | - |
| 1778091867 | 18.89° C | 95% | 1012.8 hPa | 0 mm | - | 148 W/m² | - |
| 1778091564 | 19.44° C | 94% | 1012.8 hPa | 0 mm | - | 141 W/m² | - |
| 1778091262 | 19.44° C | 92% | 1013 hPa | 0 mm | - | 150 W/m² | - |
| 1778090958 | 20° C | 92% | 1012.8 hPa | 0 mm | - | 154 W/m² | - |
| 1778090654 | 20° C | 91% | 1012.9 hPa | 0 mm | - | 229 W/m² | - |
| 1778090346 | 20° C | 91% | 1012.8 hPa | 0 mm | - | 304 W/m² | - |
* Rain latest hour (hover to see other rain measurements)
** Current wind speed in m/s (hover to see current wind gust speed)